Minneapolis, Minnesota
Traffic Map
Current Weather Conditions
Minneapolis, Minnesota
Scattered Clouds
Scattered Clouds
24°
Feels Like: 24°
Wind Chill: 24° Ceiling: Unl
Heat Index: 24° Visibility: 10mi
Dew Point: 18° Wind: 7mph
Humidity: 69% Direction: ° ()
Pressure: 29.86in Gusts: 0mph
Raw Report DataKMSP 201553Z VRB06KT 10SM FEW020 SCT300 24/18 A2986 RMK AO2 SLP106 T02440183
Traffic Incident Summary
Active as of:
Severity:
Category:
InformationThere was an issue retrieving the traffic information for this location. Please try a different location or try again shortly.
Advertisements
Track Severe Weather on mobile